Time;durP1;ratioP1;P1;durP2;ratioP2;P2;SDS_P1;SDS_P2;PMS_P1;PMS_P2;Temp;Humidity;BMP_temperature;BMP_pressure;BME280_temperature;BME280_humidity;BME280_pressure;Samples;Min_cycle;Max_cycle;Signal;HPM_P1;HPM_P2
2022/03/14 00:00:27;;;;;;;7.53;1.88;;;12.20;99.90;;;;;;5058603;28;20033;-73
2022/03/14 00:02:53;;;;;;;11.15;2.00;;;12.20;99.90;;;;;;5044103;28;20087;-73
2022/03/14 00:05:19;;;;;;;9.52;1.88;;;12.20;99.90;;;;;;5054854;28;20108;-73
2022/03/14 00:07:46;;;;;;;11.98;2.95;;;12.20;99.90;;;;;;5060166;28;20052;-72
2022/03/14 00:10:15;;;;;;;6.00;1.48;;;12.10;99.90;;;;;;5054975;28;20068;-72
2022/03/14 00:12:48;;;;;;;6.80;1.60;;;12.10;99.90;;;;;;5057172;28;20033;-73
2022/03/14 00:15:15;;;;;;;;;;;12.10;99.90;;;;;;5075679;28;20041;-72
2022/03/14 00:17:43;;;;;;;6.50;1.88;;;12.10;99.90;;;;;;5061444;28;20352;-73
2022/03/14 00:20:11;;;;;;;7.60;1.77;;;12.10;99.90;;;;;;5058987;28;20032;-73
2022/03/14 00:22:37;;;;;;;11.27;2.10;;;12.10;99.90;;;;;;5062279;28;20404;-73
2022/03/14 00:25:07;;;;;;;7.72;1.90;;;12.00;99.90;;;;;;5043571;28;20057;-72
2022/03/14 00:27:35;;;;;;;5.22;1.80;;;12.00;99.90;;;;;;5052364;28;20102;-72
2022/03/14 00:30:04;;;;;;;10.38;1.92;;;12.00;99.90;;;;;;5059040;28;20593;-71
2022/03/14 00:32:30;;;;;;;8.07;1.98;;;12.00;99.90;;;;;;5054128;28;20052;-72
2022/03/14 00:34:57;;;;;;;7.18;2.40;;;12.00;99.90;;;;;;5042550;28;20083;-72
2022/03/14 00:37:22;;;;;;;9.73;1.60;;;12.00;99.90;;;;;;5043557;28;20823;-73
2022/03/14 00:39:49;;;;;;;17.77;2.25;;;11.90;99.90;;;;;;5050438;28;20041;-72
2022/03/14 00:42:15;;;;;;;11.85;2.28;;;11.90;99.90;;;;;;5057113;28;20110;-71
2022/03/14 00:44:44;;;;;;;8.68;2.20;;;11.90;99.90;;;;;;5034652;28;20063;-72
2022/03/14 00:47:10;;;;;;;11.95;1.98;;;11.90;99.90;;;;;;5053427;28;20063;-73
2022/03/14 00:49:36;;;;;;;6.82;2.03;;;11.80;99.90;;;;;;5050931;28;20065;-73
2022/03/14 00:52:02;;;;;;;7.20;2.10;;;11.80;99.90;;;;;;5044663;28;20060;-72
2022/03/14 00:54:28;;;;;;;10.18;1.85;;;11.80;99.90;;;;;;5055633;28;20067;-72
2022/03/14 00:56:54;;;;;;;5.55;1.48;;;11.70;99.90;;;;;;5043136;28;20125;-72
2022/03/14 00:59:20;;;;;;;5.85;1.60;;;11.60;99.90;;;;;;5051244;28;20037;-73
2022/03/14 01:01:47;;;;;;;5.38;1.30;;;11.60;99.90;;;;;;5032009;28;20043;-72
2022/03/14 01:04:13;;;;;;;7.32;1.48;;;11.60;99.90;;;;;;5056344;28;20400;-73
2022/03/14 01:06:38;;;;;;;3.70;1.15;;;11.50;99.90;;;;;;5052559;28;20044;-73
2022/03/14 01:09:04;;;;;;;4.35;1.25;;;11.50;99.90;;;;;;5051245;28;20039;-74
2022/03/14 01:11:30;;;;;;;4.80;1.40;;;11.50;99.90;;;;;;5054002;28;20032;-73
2022/03/14 01:13:56;;;;;;;4.03;1.38;;;11.50;99.90;;;;;;5060694;28;20052;-73
2022/03/14 01:16:22;;;;;;;3.42;1.00;;;11.40;99.90;;;;;;5042358;28;20040;-73
2022/03/14 01:18:48;;;;;;;3.67;1.38;;;11.40;99.90;;;;;;5054389;28;20064;-72
2022/03/14 01:21:13;;;;;;;4.72;1.02;;;11.50;99.90;;;;;;5057456;28;20040;-72
2022/03/14 01:23:39;;;;;;;2.97;0.82;;;11.50;99.90;;;;;;5055031;28;20040;-73
2022/03/14 01:26:09;;;;;;;1.92;0.80;;;11.40;99.90;;;;;;5054370;28;20051;-72
2022/03/14 01:28:35;;;;;;;3.05;1.00;;;11.40;99.90;;;;;;5057198;28;20052;-73
2022/03/14 01:31:00;;;;;;;2.47;0.70;;;11.50;99.90;;;;;;5072254;28;20488;-72
2022/03/14 01:33:26;;;;;;;1.42;0.70;;;11.50;99.90;;;;;;5039762;28;20063;-73
2022/03/14 01:35:52;;;;;;;1.85;0.63;;;11.50;99.90;;;;;;5056095;28;20353;-73
2022/03/14 01:38:18;;;;;;;1.27;0.68;;;11.50;99.90;;;;;;5060512;28;20036;-72
2022/03/14 01:40:44;;;;;;;3.38;0.63;;;11.50;99.90;;;;;;5057317;28;20041;-72
2022/03/14 01:43:09;;;;;;;3.08;0.70;;;11.40;99.90;;;;;;5044620;28;20048;-73
2022/03/14 01:45:35;;;;;;;2.58;0.88;;;11.40;99.90;;;;;;5056076;28;20045;-72
2022/03/14 01:48:02;;;;;;;2.05;0.60;;;11.30;99.90;;;;;;5055004;28;20041;-72
2022/03/14 01:50:28;;;;;;;1.63;0.50;;;11.30;99.90;;;;;;5053294;28;20155;-73
2022/03/14 01:52:54;;;;;;;1.58;0.70;;;11.30;99.90;;;;;;5075306;28;20441;-73
2022/03/14 01:55:21;;;;;;;2.05;0.60;;;11.40;99.90;;;;;;5055823;28;20044;-72
2022/03/14 01:57:46;;;;;;;1.27;0.60;;;11.40;99.90;;;;;;5057004;28;20044;-73
2022/03/14 02:00:13;;;;;;;1.52;0.60;;;11.40;99.90;;;;;;5060239;28;20387;-72
2022/03/14 02:02:39;;;;;;;1.50;0.88;;;11.40;99.90;;;;;;5077160;28;20040;-72
2022/03/14 02:05:06;;;;;;;2.05;0.85;;;11.40;99.90;;;;;;5071257;28;20669;-72
2022/03/14 02:07:32;;;;;;;3.47;0.65;;;11.30;99.90;;;;;;5075146;28;20044;-73
2022/03/14 02:09:58;;;;;;;1.30;0.60;;;11.40;99.90;;;;;;5058579;28;20392;-73
2022/03/14 02:12:25;;;;;;;2.33;0.80;;;11.50;99.90;;;;;;5071038;28;20075;-73
2022/03/14 02:14:50;;;;;;;2.72;0.60;;;11.50;99.90;;;;;;5065995;28;20040;-73
2022/03/14 02:17:21;;;;;;;2.22;0.63;;;11.50;99.90;;;;;;5077417;28;20043;-71
2022/03/14 02:19:47;;;;;;;2.17;0.70;;;11.50;99.90;;;;;;5076899;28;20032;-72
2022/03/14 02:22:14;;;;;;;1.38;0.60;;;11.50;99.90;;;;;;5066599;28;20118;-72
2022/03/14 02:24:46;;;;;;;1.13;0.70;;;11.50;99.90;;;;;;5045920;28;20108;-73
2022/03/14 02:27:13;;;;;;;2.75;0.88;;;11.60;99.90;;;;;;5053488;28;20061;-72
2022/03/14 02:29:40;;;;;;;1.85;0.70;;;11.60;99.90;;;;;;5075440;28;20032;-72
2022/03/14 02:32:14;;;;;;;2.25;0.80;;;11.70;99.90;;;;;;5068798;28;20942;-72
2022/03/14 02:34:40;;;;;;;2.03;0.70;;;11.70;99.90;;;;;;5058529;28;20119;-72
2022/03/14 02:37:06;;;;;;;2.45;0.70;;;11.80;99.90;;;;;;5074328;28;20403;-72
2022/03/14 02:39:33;;;;;;;2.05;0.70;;;11.80;99.90;;;;;;5079747;28;20040;-72
2022/03/14 02:42:02;;;;;;;5.57;1.00;;;11.90;99.90;;;;;;5060314;28;20135;-72
2022/03/14 02:44:28;;;;;;;2.17;0.65;;;12.00;99.90;;;;;;5081888;28;20470;-72
2022/03/14 02:46:54;;;;;;;3.28;0.98;;;12.00;99.90;;;;;;5081898;28;20044;-72
2022/03/14 02:49:20;;;;;;;5.47;0.88;;;12.10;99.90;;;;;;5079745;28;20134;-72
2022/03/14 02:51:50;;;;;;;2.00;0.70;;;12.10;99.90;;;;;;5076256;28;20068;-71
2022/03/14 02:54:16;;;;;;;2.30;0.77;;;12.10;99.90;;;;;;5060876;28;20036;-71
2022/03/14 02:56:42;;;;;;;5.13;1.00;;;12.10;99.90;;;;;;5056123;28;20051;-72
2022/03/14 02:59:08;;;;;;;2.38;0.70;;;12.20;99.90;;;;;;5048207;28;20543;-73
2022/03/14 03:01:35;;;;;;;2.72;0.75;;;12.20;99.90;;;;;;5065239;28;20148;-72
2022/03/14 03:04:01;;;;;;;2.78;0.77;;;12.20;99.90;;;;;;5056885;28;20045;-72
2022/03/14 03:06:27;;;;;;;3.72;0.85;;;12.20;99.90;;;;;;5054050;28;20048;-73
2022/03/14 03:08:54;;;;;;;2.30;0.70;;;12.20;99.90;;;;;;5027246;28;20104;-72
2022/03/14 03:11:21;;;;;;;3.95;0.90;;;12.20;99.90;;;;;;5048037;28;20089;-72
2022/03/14 03:13:48;;;;;;;4.00;0.73;;;12.20;99.90;;;;;;5058783;28;20436;-73
2022/03/14 03:16:16;;;;;;;4.00;0.80;;;12.20;99.90;;;;;;5057861;28;20041;-73
2022/03/14 03:18:45;;;;;;;2.22;0.80;;;12.10;99.90;;;;;;5067219;28;20368;-72
2022/03/14 03:21:12;;;;;;;5.55;0.88;;;12.20;99.90;;;;;;5056579;28;20504;-71
2022/03/14 03:23:39;;;;;;;4.30;0.82;;;12.20;99.90;;;;;;5043486;28;20083;-72
2022/03/14 03:26:06;;;;;;;3.97;0.77;;;12.20;99.90;;;;;;5056495;28;20048;-72
2022/03/14 03:28:36;;;;;;;1.58;0.65;;;12.20;99.90;;;;;;5057802;28;20044;-72
2022/03/14 03:31:16;;;;;;;3.03;0.73;;;12.10;99.90;;;;;;5061194;28;20044;-73
2022/03/14 03:33:44;;;;;;;2.83;0.50;;;12.20;99.90;;;;;;5029203;28;20132;-73
2022/03/14 03:36:10;;;;;;;2.50;0.70;;;12.20;99.90;;;;;;5059447;28;20095;-73
2022/03/14 03:38:38;;;;;;;2.58;0.82;;;12.20;99.90;;;;;;5049575;28;20040;-72
2022/03/14 03:41:04;;;;;;;1.67;0.55;;;12.20;99.90;;;;;;5058253;28;20079;-73
2022/03/14 03:43:30;;;;;;;3.95;0.40;;;12.20;99.90;;;;;;5038445;28;20091;-71
2022/03/14 03:45:57;;;;;;;3.47;0.80;;;12.20;99.90;;;;;;5059458;28;20071;-72
2022/03/14 03:48:23;;;;;;;3.75;0.70;;;12.20;99.90;;;;;;5046675;28;20045;-72
2022/03/14 03:50:49;;;;;;;3.30;0.60;;;12.20;99.90;;;;;;5057920;28;20052;-72
2022/03/14 03:53:15;;;;;;;3.17;0.95;;;12.20;99.90;;;;;;5055140;28;20045;-72
2022/03/14 03:55:41;;;;;;;4.68;0.90;;;12.20;99.90;;;;;;5057053;28;20754;-71
2022/03/14 03:58:07;;;;;;;5.28;0.60;;;12.20;99.90;;;;;;5055990;28;20045;-72
2022/03/14 04:00:33;;;;;;;3.95;0.75;;;12.20;99.90;;;;;;5056521;28;20052;-72
2022/03/14 04:03:00;;;;;;;1.75;0.45;;;12.20;99.90;;;;;;5056311;28;20040;-72
2022/03/14 04:05:27;;;;;;;3.17;0.77;;;12.20;99.90;;;;;;5055206;28;20036;-73
2022/03/14 04:07:58;;;;;;;3.70;0.80;;;12.20;99.90;;;;;;5056834;28;20051;-71
2022/03/14 04:10:28;;;;;;;1.77;0.68;;;12.20;99.90;;;;;;5071868;28;20484;-71
2022/03/14 04:12:58;;;;;;;4.18;1.05;;;12.20;99.90;;;;;;5055482;28;20378;-72
2022/03/14 04:15:27;;;;;;;4.20;0.60;;;12.20;99.90;;;;;;5063582;28;20033;-72
2022/03/14 04:17:57;;;;;;;2.22;0.82;;;12.20;99.90;;;;;;5024745;28;20041;-72
2022/03/14 04:20:24;;;;;;;2.97;0.88;;;12.20;99.90;;;;;;5068069;28;20044;-72
2022/03/14 04:22:51;;;;;;;2.60;0.52;;;12.20;99.90;;;;;;5054064;28;20190;-72
2022/03/14 04:25:17;;;;;;;4.05;0.68;;;12.20;99.90;;;;;;5040006;28;20108;-72
2022/03/14 04:27:43;;;;;;;3.15;0.70;;;12.10;99.90;;;;;;5049241;28;20170;-73
2022/03/14 04:30:09;;;;;;;3.47;0.60;;;12.10;99.90;;;;;;5057826;28;20036;-72
2022/03/14 04:32:35;;;;;;;2.17;0.50;;;12.10;99.90;;;;;;5055430;28;20130;-71
2022/03/14 04:35:02;;;;;;;4.90;0.90;;;12.10;99.90;;;;;;5048590;28;20044;-71
2022/03/14 04:37:28;;;;;;;3.58;0.70;;;12.10;99.90;;;;;;5069606;28;20040;-71
2022/03/14 04:39:54;;;;;;;6.25;1.25;;;12.10;99.90;;;;;;5057267;28;20047;-71
2022/03/14 04:42:21;;;;;;;2.55;0.82;;;12.10;99.90;;;;;;5054800;28;20686;-71
2022/03/14 04:44:49;;;;;;;3.30;0.80;;;12.10;99.90;;;;;;5058048;28;20870;-72
2022/03/14 04:47:16;;;;;;;2.97;0.65;;;12.10;99.90;;;;;;5056742;28;20036;-72
2022/03/14 04:49:42;;;;;;;3.13;0.95;;;12.00;99.90;;;;;;5068307;28;20040;-72
2022/03/14 04:52:09;;;;;;;5.15;0.80;;;12.00;99.90;;;;;;5056379;28;20043;-72
2022/03/14 04:54:35;;;;;;;4.63;0.82;;;12.00;99.90;;;;;;5041353;28;20129;-72
2022/03/14 04:57:02;;;;;;;2.95;1.02;;;12.10;99.90;;;;;;5040531;28;20045;-71
2022/03/14 04:59:27;;;;;;;4.40;0.98;;;12.00;99.90;;;;;;5057875;28;20036;-71
2022/03/14 05:01:53;;;;;;;5.32;1.00;;;12.10;99.90;;;;;;5060919;28;20104;-72
2022/03/14 05:04:19;;;;;;;3.40;0.95;;;12.10;99.90;;;;;;5056555;28;20430;-72
2022/03/14 05:06:45;;;;;;;5.68;0.98;;;12.00;99.90;;;;;;5081148;28;20043;-72
2022/03/14 05:09:11;;;;;;;6.65;1.05;;;12.10;99.90;;;;;;5037945;28;20040;-71
2022/03/14 05:11:38;;;;;;;5.25;1.23;;;12.10;99.90;;;;;;5063166;28;20470;-71
2022/03/14 05:14:08;;;;;;;5.80;1.15;;;12.10;99.90;;;;;;5073682;28;20041;-72
2022/03/14 05:16:34;;;;;;;6.85;1.58;;;12.10;99.90;;;;;;5074176;28;20044;-71
2022/03/14 05:19:00;;;;;;;8.38;1.63;;;12.10;99.90;;;;;;5071895;28;20040;-73
2022/03/14 05:21:26;;;;;;;6.47;1.40;;;12.10;99.90;;;;;;5072878;28;20031;-72
2022/03/14 05:23:53;;;;;;;6.57;1.35;;;12.10;99.90;;;;;;5059553;28;20044;-73
2022/03/14 05:26:18;;;;;;;7.20;1.73;;;12.10;99.90;;;;;;5079134;28;20136;-71
2022/03/14 05:28:44;;;;;;;12.15;1.55;;;12.10;99.90;;;;;;5073275;28;20151;-72
2022/03/14 05:31:10;;;;;;;7.95;1.73;;;12.10;99.90;;;;;;5072368;28;20068;-71
2022/03/14 05:33:36;;;;;;;9.57;1.38;;;12.10;99.90;;;;;;5060212;28;20043;-71
2022/03/14 05:36:01;;;;;;;5.88;1.75;;;12.10;99.90;;;;;;5078442;28;20036;-72
2022/03/14 05:38:28;;;;;;;12.88;2.13;;;12.10;99.90;;;;;;5071535;28;20097;-71
2022/03/14 05:40:55;;;;;;;8.23;1.63;;;12.00;99.90;;;;;;5072935;28;20048;-72
2022/03/14 05:43:24;;;;;;;6.20;1.58;;;11.90;99.90;;;;;;5058746;28;20044;-72
2022/03/14 05:45:51;;;;;;;12.40;2.10;;;11.90;99.90;;;;;;5076382;28;20077;-71
2022/03/14 05:48:17;;;;;;;10.30;2.13;;;11.80;99.90;;;;;;5076952;28;20043;-72
2022/03/14 05:50:42;;;;;;;11.23;2.10;;;11.80;99.90;;;;;;5075166;28;20036;-72
2022/03/14 05:53:10;;;;;;;13.07;2.33;;;11.80;99.90;;;;;;5076709;28;20830;-71
2022/03/14 05:55:36;;;;;;;12.30;2.35;;;11.80;99.90;;;;;;5058941;28;20040;-72
2022/03/14 05:58:03;;;;;;;11.63;2.08;;;11.60;99.90;;;;;;5074196;28;20044;-71
2022/03/14 06:00:30;;;;;;;12.30;2.28;;;11.40;99.90;;;;;;5066727;28;20037;-73
2022/03/14 06:02:56;;;;;;;12.30;2.00;;;11.30;99.90;;;;;;5059261;28;20041;-71
2022/03/14 06:05:22;;;;;;;11.13;2.10;;;11.20;99.90;;;;;;5073360;28;20042;-71
2022/03/14 06:07:48;;;;;;;13.13;2.55;;;11.10;99.90;;;;;;5078372;28;20054;-72
2022/03/14 06:10:15;;;;;;;8.00;2.20;;;11.10;99.90;;;;;;5076361;28;20036;-72
2022/03/14 06:12:41;;;;;;;11.73;2.30;;;11.10;99.90;;;;;;5070564;28;20423;-72
2022/03/14 06:15:10;;;;;;;10.18;2.42;;;11.10;99.90;;;;;;5068865;28;20057;-72
2022/03/14 06:17:41;;;;;;;12.65;2.20;;;11.10;99.90;;;;;;5074370;28;20046;-73
2022/03/14 06:20:11;;;;;;;8.05;2.15;;;11.10;99.90;;;;;;5072822;28;20039;-72
2022/03/14 06:22:46;;;;;;;11.65;2.60;;;11.20;99.90;;;;;;5064048;28;20044;-72
2022/03/14 06:25:13;;;;;;;9.85;2.00;;;11.20;99.90;;;;;;5075646;28;20086;-72
2022/03/14 06:27:39;;;;;;;19.05;3.13;;;11.30;99.90;;;;;;5072958;28;20109;-72
2022/03/14 06:30:07;;;;;;;10.25;2.53;;;11.30;99.90;;;;;;5069182;28;20037;-71
2022/03/14 06:32:40;;;;;;;10.10;1.98;;;11.30;99.90;;;;;;5076548;28;20041;-72
2022/03/14 06:35:09;;;;;;;12.45;2.40;;;11.40;99.90;;;;;;5055438;28;20048;-73
2022/03/14 06:37:35;;;;;;;13.82;2.42;;;11.50;99.90;;;;;;5070512;28;20377;-71
2022/03/14 06:40:03;;;;;;;9.68;2.20;;;11.50;99.90;;;;;;5080109;28;20364;-72
2022/03/14 06:42:29;;;;;;;17.75;2.92;;;11.60;99.90;;;;;;5057134;28;20037;-72
2022/03/14 06:45:03;;;;;;;14.73;2.80;;;11.60;99.90;;;;;;5055397;28;20032;-73
2022/03/14 06:47:29;;;;;;;11.52;2.55;;;11.70;99.90;;;;;;5066293;28;20036;-72
2022/03/14 06:49:55;;;;;;;10.90;2.70;;;11.80;99.90;;;;;;5078059;28;20048;-72
2022/03/14 06:52:21;;;;;;;19.38;2.70;;;11.80;99.90;;;;;;5073314;28;20029;-72
2022/03/14 06:54:47;;;;;;;14.82;3.00;;;11.80;99.90;;;;;;5079133;28;20033;-72
2022/03/14 06:57:12;;;;;;;14.15;3.35;;;11.90;99.90;;;;;;5056748;28;20028;-71
2022/03/14 06:59:39;;;;;;;14.05;3.20;;;11.90;99.90;;;;;;5055998;28;20361;-72
2022/03/14 07:02:05;;;;;;;15.18;3.55;;;11.90;99.90;;;;;;5078265;28;20143;-72
2022/03/14 07:04:31;;;;;;;16.33;3.50;;;12.00;99.90;;;;;;5060989;28;20032;-73
2022/03/14 07:06:59;;;;;;;17.52;3.47;;;12.00;99.90;;;;;;5055569;28;20119;-73
2022/03/14 07:09:25;;;;;;;15.48;3.78;;;12.00;99.90;;;;;;5057112;28;20429;-71
2022/03/14 07:11:51;;;;;;;14.55;3.08;;;12.00;99.90;;;;;;5060752;28;20061;-72
2022/03/14 07:14:21;;;;;;;13.70;3.35;;;12.00;99.90;;;;;;5051331;28;20036;-72
2022/03/14 07:16:50;;;;;;;16.52;3.92;;;12.10;99.90;;;;;;5055400;28;20100;-72
2022/03/14 07:19:16;;;;;;;14.05;3.40;;;12.10;99.90;;;;;;5036751;28;20453;-72
2022/03/14 07:21:42;;;;;;;15.55;3.75;;;12.20;99.90;;;;;;5032142;28;20041;-72
2022/03/14 07:24:09;;;;;;;15.63;3.80;;;12.20;99.90;;;;;;5056200;28;20041;-73
2022/03/14 07:26:35;;;;;;;14.60;4.00;;;12.10;99.90;;;;;;5054967;28;20116;-72
2022/03/14 07:29:01;;;;;;;14.65;3.50;;;12.10;99.90;;;;;;5055335;28;20674;-72
2022/03/14 07:31:27;;;;;;;21.85;3.95;;;12.20;99.90;;;;;;5061978;28;20025;-72
2022/03/14 07:33:53;;;;;;;18.30;4.05;;;12.20;99.90;;;;;;5041187;28;20106;-72
2022/03/14 07:36:19;;;;;;;15.48;4.38;;;12.30;99.90;;;;;;5057195;28;20311;-72
2022/03/14 07:38:45;;;;;;;15.70;3.90;;;12.40;99.90;;;;;;5075903;28;20091;-73
2022/03/14 07:41:11;;;;;;;17.27;4.10;;;12.40;99.90;;;;;;5053604;28;20504;-71
2022/03/14 07:43:39;;;;;;;14.88;4.00;;;12.50;99.90;;;;;;5062093;28;20033;-72
2022/03/14 07:46:05;;;;;;;16.88;4.60;;;12.50;99.90;;;;;;5057887;28;20072;-72
2022/03/14 07:48:31;;;;;;;14.63;4.10;;;12.60;99.90;;;;;;5041469;28;20044;-72
2022/03/14 07:50:57;;;;;;;15.15;4.07;;;12.70;99.90;;;;;;5041456;28;20044;-72
2022/03/14 07:53:23;;;;;;;17.63;4.55;;;12.70;99.90;;;;;;5060670;28;20180;-72
2022/03/14 07:55:49;;;;;;;16.08;4.30;;;12.80;99.90;;;;;;5057994;28;20063;-71
2022/03/14 07:58:15;;;;;;;16.25;4.60;;;12.80;99.90;;;;;;5054855;28;20036;-71
2022/03/14 08:00:41;;;;;;;17.45;4.07;;;12.90;99.90;;;;;;5051664;28;20053;-73
2022/03/14 08:03:07;;;;;;;16.35;4.85;;;13.00;99.90;;;;;;5036432;28;20047;-72
2022/03/14 08:05:33;;;;;;;17.90;4.43;;;13.00;99.90;;;;;;5054628;28;20037;-74
2022/03/14 08:08:02;;;;;;;18.70;4.45;;;13.00;99.90;;;;;;5059940;28;20144;-71
2022/03/14 08:10:29;;;;;;;13.80;4.45;;;13.10;99.90;;;;;;5029274;28;20041;-71
2022/03/14 08:12:56;;;;;;;19.10;4.68;;;13.10;99.90;;;;;;5060074;28;20048;-73
2022/03/14 08:15:23;;;;;;;22.63;5.68;;;13.10;99.90;;;;;;5046515;28;21588;-73
2022/03/14 08:17:50;;;;;;;21.90;4.93;;;13.10;99.90;;;;;;5052412;28;20654;-72
2022/03/14 08:20:17;;;;;;;20.25;4.70;;;13.10;99.90;;;;;;5057077;28;20033;-73
2022/03/14 08:22:43;;;;;;;15.00;4.78;;;13.20;99.90;;;;;;5060941;28;20044;-75
2022/03/14 08:25:10;;;;;;;25.58;5.25;;;13.30;99.90;;;;;;5053776;28;20032;-72
2022/03/14 08:27:36;;;;;;;15.18;4.50;;;13.30;99.90;;;;;;5044688;28;20075;-73
2022/03/14 08:30:02;;;;;;;14.90;4.97;;;13.40;99.90;;;;;;5059675;28;20048;-73
2022/03/14 08:32:28;;;;;;;18.30;5.03;;;13.40;99.90;;;;;;5038768;28;20036;-73
2022/03/14 08:34:56;;;;;;;17.33;5.00;;;13.40;99.90;;;;;;5059098;28;20114;-74
2022/03/14 08:37:22;;;;;;;18.55;4.82;;;13.50;99.90;;;;;;5044888;28;22374;-73
2022/03/14 08:39:48;;;;;;;16.67;4.45;;;13.50;99.90;;;;;;5049087;28;20518;-73
2022/03/14 08:42:14;;;;;;;15.30;4.80;;;13.50;99.90;;;;;;5047820;28;20049;-73
2022/03/14 08:44:40;;;;;;;12.95;4.60;;;13.50;99.90;;;;;;5038755;28;20537;-73
2022/03/14 08:47:07;;;;;;;22.95;5.20;;;13.60;99.90;;;;;;5049759;28;20124;-72
2022/03/14 08:49:34;;;;;;;17.52;5.22;;;13.50;99.90;;;;;;5042008;28;21148;-72
2022/03/14 08:52:01;;;;;;;18.55;4.63;;;13.60;99.90;;;;;;5055361;28;20044;-72
2022/03/14 08:54:26;;;;;;;17.23;4.80;;;13.60;99.90;;;;;;5026481;28;20056;-73
2022/03/14 08:56:52;;;;;;;16.77;4.88;;;13.60;99.90;;;;;;5025881;28;20060;-73
2022/03/14 08:59:18;;;;;;;15.15;4.85;;;13.60;99.90;;;;;;5027556;28;20044;-74
2022/03/14 09:01:44;;;;;;;19.48;4.75;;;13.60;99.90;;;;;;5048991;28;20041;-74
2022/03/14 09:04:10;;;;;;;17.17;4.88;;;13.50;99.90;;;;;;5043221;28;20041;-72
2022/03/14 09:06:36;;;;;;;21.63;5.25;;;13.40;99.90;;;;;;5047023;28;20048;-74
2022/03/14 09:09:05;;;;;;;23.55;5.57;;;13.30;99.90;;;;;;5052687;28;20037;-72
2022/03/14 09:11:31;;;;;;;17.85;4.90;;;13.30;99.90;;;;;;5043655;28;20040;-73
2022/03/14 09:13:57;;;;;;;16.70;5.18;;;13.30;99.90;;;;;;5035962;28;21146;-73
2022/03/14 09:16:23;;;;;;;15.35;5.00;;;13.30;99.90;;;;;;5040893;28;20101;-74
2022/03/14 09:18:49;;;;;;;22.02;5.03;;;13.40;99.90;;;;;;5040905;28;20045;-73
2022/03/14 09:21:15;;;;;;;19.77;6.88;;;13.40;99.90;;;;;;5046481;28;20505;-73
2022/03/14 09:23:42;;;;;;;15.88;5.15;;;13.40;99.90;;;;;;5060302;28;20127;-72
2022/03/14 09:26:09;;;;;;;14.98;4.88;;;13.50;99.90;;;;;;5047762;28;20063;-73
2022/03/14 09:28:36;;;;;;;22.45;5.40;;;13.50;99.90;;;;;;5045245;28;20044;-72
2022/03/14 09:31:03;;;;;;;15.40;4.70;;;13.50;99.90;;;;;;5040520;28;24765;-72
2022/03/14 09:33:29;;;;;;;21.60;4.65;;;13.50;99.90;;;;;;5041403;28;20446;-72
2022/03/14 09:35:55;;;;;;;14.25;4.53;;;13.50;99.90;;;;;;5012706;28;20071;-74
2022/03/14 09:38:21;;;;;;;18.63;4.30;;;13.50;99.90;;;;;;5043851;28;20072;-73
2022/03/14 09:40:50;;;;;;;16.95;4.35;;;13.50;99.90;;;;;;5043746;28;20989;-75
2022/03/14 09:43:17;;;;;;;15.75;4.72;;;13.60;99.90;;;;;;5041787;28;20492;-73
2022/03/14 09:45:50;;;;;;;16.05;5.18;;;13.50;99.90;;;;;;5041300;28;20047;-73
2022/03/14 09:48:16;;;;;;;13.95;4.15;;;13.50;99.90;;;;;;5051983;28;20804;-73
2022/03/14 09:50:44;;;;;;;15.13;4.50;;;13.40;99.90;;;;;;5044980;28;20048;-74
2022/03/14 09:53:13;;;;;;;20.13;4.88;;;13.40;99.90;;;;;;5050951;28;20089;-73
2022/03/14 09:55:46;;;;;;;15.55;4.63;;;13.30;99.90;;;;;;5041207;28;20049;-73
2022/03/14 09:58:14;;;;;;;16.60;4.05;;;13.20;99.90;;;;;;5035666;28;20040;-73
2022/03/14 10:00:41;;;;;;;16.75;4.30;;;13.00;99.90;;;;;;5039037;28;20047;-72
2022/03/14 10:03:07;;;;;;;15.88;4.55;;;12.90;99.90;;;;;;5043537;28;20070;-73
2022/03/14 10:05:33;;;;;;;17.17;4.03;;;12.90;99.90;;;;;;5043657;28;20704;-72
2022/03/14 10:08:00;;;;;;;17.30;4.63;;;12.80;99.90;;;;;;5043662;28;20101;-72
2022/03/14 10:10:26;;;;;;;17.23;4.30;;;12.80;99.90;;;;;;5045510;28;20033;-72
2022/03/14 10:12:53;;;;;;;19.13;3.97;;;12.80;99.90;;;;;;5044476;28;20072;-73
2022/03/14 10:15:25;;;;;;;19.00;3.67;;;12.70;99.90;;;;;;5040973;28;20064;-72
2022/03/14 10:17:53;;;;;;;18.30;4.00;;;12.60;99.90;;;;;;5045629;28;20399;-73
2022/03/14 10:20:20;;;;;;;17.27;4.00;;;12.60;99.90;;;;;;5017645;28;20783;-71
2022/03/14 10:22:47;;;;;;;14.60;4.30;;;12.60;99.90;;;;;;5037888;28;20040;-72
2022/03/14 10:25:15;;;;;;;17.15;4.07;;;12.60;99.90;;;;;;5046920;28;20044;-73
2022/03/14 10:27:45;;;;;;;13.48;4.20;;;12.70;99.90;;;;;;5045197;28;20410;-72
2022/03/14 10:30:31;;;;;;;17.20;4.13;;;12.70;99.90;;;;;;5055855;28;20388;-73
2022/03/14 10:33:12;;;;;;;14.68;3.95;;;12.70;99.90;;;;;;5038682;28;20086;-73
2022/03/14 10:35:43;;;;;;;14.10;4.22;;;12.80;99.90;;;;;;5024330;28;20044;-73
2022/03/14 10:38:11;;;;;;;14.70;3.75;;;12.80;99.90;;;;;;5047524;28;20052;-72
2022/03/14 10:40:43;;;;;;;14.93;3.90;;;12.80;99.90;;;;;;5077209;28;20087;-73
2022/03/14 10:43:31;;;;;;;15.10;3.40;;;12.90;99.90;;;;;;5052716;28;20040;-72
2022/03/14 10:45:58;;;;;;;13.82;3.30;;;13.00;99.90;;;;;;5040997;28;20041;-72
2022/03/14 10:48:34;;;;;;;16.45;3.55;;;13.10;99.90;;;;;;5044819;28;20130;-72
2022/03/14 10:51:05;;;;;;;9.30;3.65;;;13.30;99.90;;;;;;5042385;28;20496;-72
2022/03/14 10:53:31;;;;;;;12.57;3.63;;;13.30;99.90;;;;;;5027909;28;20473;-73
2022/03/14 10:55:58;;;;;;;14.52;3.75;;;13.40;99.90;;;;;;5055445;28;20385;-73
2022/03/14 10:58:30;;;;;;;14.00;3.15;;;13.30;99.90;;;;;;5040957;28;20064;-73
2022/03/14 11:01:10;;;;;;;12.77;3.25;;;13.10;99.90;;;;;;5056745;28;20161;-74
2022/03/14 11:03:41;;;;;;;12.05;3.45;;;13.10;99.90;;;;;;5049762;28;20542;-72
2022/03/14 11:06:14;;;;;;;10.88;3.38;;;13.10;99.90;;;;;;5042202;28;20064;-73
2022/03/14 11:08:42;;;;;;;11.82;3.50;;;13.20;99.90;;;;;;5052306;28;20109;-72
2022/03/14 11:11:16;;;;;;;11.50;3.10;;;13.20;99.90;;;;;;5025758;28;20055;-73
2022/03/14 11:13:47;;;;;;;15.45;2.85;;;13.20;99.90;;;;;;5055838;28;20048;-72
2022/03/14 11:16:13;;;;;;;15.50;3.70;;;13.10;99.90;;;;;;5034738;28;20039;-72
2022/03/14 11:18:40;;;;;;;11.25;3.17;;;13.20;99.90;;;;;;5041181;28;20044;-74
2022/03/14 11:21:08;;;;;;;13.05;2.90;;;13.10;99.90;;;;;;5046332;28;20056;-73
2022/03/14 11:23:36;;;;;;;14.20;3.38;;;13.20;99.90;;;;;;5064297;28;20112;-74
2022/03/14 11:26:02;;;;;;;12.50;3.55;;;13.20;99.90;;;;;;5047361;28;20051;-73
2022/03/14 11:28:33;;;;;;;14.43;3.58;;;13.30;99.90;;;;;;5028130;28;20037;-72
2022/03/14 11:31:00;;;;;;;11.23;2.42;;;13.30;99.90;;;;;;5036048;28;20481;-73
2022/03/14 11:33:29;;;;;;;8.52;2.50;;;13.40;99.90;;;;;;5041414;28;20392;-73
2022/03/14 11:35:55;;;;;;;9.90;2.67;;;13.50;99.90;;;;;;5050282;28;20033;-72
2022/03/14 11:38:21;;;;;;;11.55;2.90;;;13.50;99.90;;;;;;5047326;28;20045;-72
2022/03/14 11:40:49;;;;;;;11.73;3.17;;;13.70;99.90;;;;;;5047314;28;20037;-73
2022/03/14 11:43:17;;;;;;;10.90;3.08;;;13.80;99.90;;;;;;5051106;28;20981;-73
2022/03/14 11:45:43;;;;;;;14.35;3.08;;;13.90;99.90;;;;;;5044616;28;20075;-72
2022/03/14 11:48:10;;;;;;;10.38;3.13;;;14.00;99.90;;;;;;5044023;28;20041;-73
2022/03/14 11:50:43;;;;;;;10.95;2.92;;;14.20;99.90;;;;;;5059310;28;20054;-73
2022/03/14 11:53:09;;;;;;;12.32;3.00;;;14.60;99.90;;;;;;5047984;28;20037;-73
2022/03/14 11:55:48;;;;;;;14.60;3.20;;;14.70;99.90;;;;;;5054693;28;20079;-73
2022/03/14 11:58:34;;;;;;;16.30;3.35;;;14.90;99.90;;;;;;5048725;28;20072;-73
2022/03/14 12:01:18;;;;;;;12.55;2.72;;;15.10;99.90;;;;;;5038848;28;20048;-73
2022/03/14 12:03:55;;;;;;;11.10;3.05;;;15.10;99.90;;;;;;5047343;28;20136;-73
2022/03/14 12:06:46;;;;;;;12.15;3.05;;;14.90;99.90;;;;;;5045505;28;20071;-74
2022/03/14 12:09:34;;;;;;;13.77;2.83;;;15.00;99.90;;;;;;5050207;28;20037;-73
2022/03/14 12:12:06;;;;;;;12.25;2.63;;;15.20;99.90;;;;;;5069037;28;20040;-76
2022/03/14 12:14:45;;;;;;;10.68;2.85;;;15.30;99.90;;;;;;5067286;28;20051;-74
2022/03/14 12:17:17;;;;;;;15.13;2.90;;;15.50;99.90;;;;;;5067969;28;20060;-73
2022/03/14 12:19:48;;;;;;;10.32;2.90;;;15.40;99.90;;;;;;5069248;28;20044;-76
2022/03/14 12:22:34;;;;;;;9.05;2.63;;;15.60;99.90;;;;;;5068560;28;20040;-72
2022/03/14 12:25:01;;;;;;;14.73;3.08;;;15.40;99.90;;;;;;5032082;28;20078;-73
2022/03/14 12:27:36;;;;;;;11.45;2.63;;;15.40;99.90;;;;;;5026249;28;20036;-72
2022/03/14 12:30:16;;;;;;;10.63;3.00;;;15.30;99.90;;;;;;5048336;28;20397;-74
2022/03/14 12:32:44;;;;;;;16.13;2.72;;;15.20;99.90;;;;;;5026773;28;20048;-74
2022/03/14 12:35:18;;;;;;;14.32;3.20;;;15.10;99.90;;;;;;5036344;28;20033;-74
2022/03/14 12:37:55;;;;;;;17.00;3.28;;;14.90;99.90;;;;;;5049573;28;20054;-74
2022/03/14 12:40:21;;;;;;;12.55;2.78;;;14.90;99.90;;;;;;5066504;28;20481;-74
2022/03/14 12:43:09;;;;;;;9.68;2.65;;;14.80;99.90;;;;;;5034695;28;20119;-74